sensor_id;sensor_type;location;lat;lon;timestamp;pressure;altitude;pressure_sealevel;temperature;humidity
9325;BME280;4701;51.566;6.776;2023-06-14T00:02:57;101082.28;;;18.40;50.89
9325;BME280;4701;51.566;6.776;2023-06-14T00:05:59;101083.22;;;18.35;50.90
9325;BME280;4701;51.566;6.776;2023-06-14T00:09:02;101086.59;;;18.32;50.90
9325;BME280;4701;51.566;6.776;2023-06-14T00:12:06;101080.09;;;18.28;51.16
9325;BME280;4701;51.566;6.776;2023-06-14T00:15:09;101085.41;;;18.25;51.34
9325;BME280;4701;51.566;6.776;2023-06-14T00:18:11;101081.59;;;18.21;51.45
9325;BME280;4701;51.566;6.776;2023-06-14T00:21:13;101083.66;;;18.15;51.53
9325;BME280;4701;51.566;6.776;2023-06-14T00:24:16;101088.19;;;18.11;51.16
9325;BME280;4701;51.566;6.776;2023-06-14T00:27:18;101086.03;;;18.08;51.17
9325;BME280;4701;51.566;6.776;2023-06-14T00:30:20;101093.59;;;18.02;51.00
9325;BME280;4701;51.566;6.776;2023-06-14T00:33:22;101089.53;;;18.00;50.86
9325;BME280;4701;51.566;6.776;2023-06-14T00:36:25;101097.78;;;18.00;50.85
9325;BME280;4701;51.566;6.776;2023-06-14T00:39:28;101092.06;;;17.96;50.73
9325;BME280;4701;51.566;6.776;2023-06-14T00:42:30;101111.06;;;17.98;50.33
9325;BME280;4701;51.566;6.776;2023-06-14T00:45:32;101096.97;;;17.99;50.17
9325;BME280;4701;51.566;6.776;2023-06-14T00:48:37;101099.72;;;17.99;50.16
9325;BME280;4701;51.566;6.776;2023-06-14T00:51:41;101104.13;;;18.00;49.92
9325;BME280;4701;51.566;6.776;2023-06-14T00:54:44;101101.56;;;18.04;49.65
9325;BME280;4701;51.566;6.776;2023-06-14T00:57:46;101100.72;;;18.03;49.47
9325;BME280;4701;51.566;6.776;2023-06-14T01:00:48;101109.22;;;18.07;49.10
9325;BME280;4701;51.566;6.776;2023-06-14T01:03:51;101100.13;;;18.06;48.88
9325;BME280;4701;51.566;6.776;2023-06-14T01:06:59;101103.41;;;18.08;49.03
9325;BME280;4701;51.566;6.776;2023-06-14T01:10:21;101111.69;;;18.08;48.86
9325;BME280;4701;51.566;6.776;2023-06-14T01:13:32;101110.34;;;18.06;48.80
9325;BME280;4701;51.566;6.776;2023-06-14T01:16:35;101116.16;;;18.04;48.72
9325;BME280;4701;51.566;6.776;2023-06-14T01:19:41;101111.47;;;18.05;48.63
9325;BME280;4701;51.566;6.776;2023-06-14T01:22:50;101111.47;;;18.05;48.86
9325;BME280;4701;51.566;6.776;2023-06-14T01:25:52;101114.84;;;18.02;48.81
9325;BME280;4701;51.566;6.776;2023-06-14T01:28:54;101109.94;;;17.99;48.76
9325;BME280;4701;51.566;6.776;2023-06-14T01:31:59;101106.97;;;17.95;48.79
9325;BME280;4701;51.566;6.776;2023-06-14T01:35:05;101112.00;;;17.93;48.92
9325;BME280;4701;51.566;6.776;2023-06-14T01:38:09;101105.66;;;17.93;48.81
9325;BME280;4701;51.566;6.776;2023-06-14T01:41:11;101104.84;;;17.92;48.71
9325;BME280;4701;51.566;6.776;2023-06-14T01:44:14;101106.28;;;17.90;48.74
9325;BME280;4701;51.566;6.776;2023-06-14T01:47:17;101103.31;;;17.86;48.92
9325;BME280;4701;51.566;6.776;2023-06-14T01:50:19;101103.09;;;17.83;48.72
9325;BME280;4701;51.566;6.776;2023-06-14T01:53:22;101105.97;;;17.77;48.88
9325;BME280;4701;51.566;6.776;2023-06-14T01:56:24;101100.75;;;17.76;48.89
9325;BME280;4701;51.566;6.776;2023-06-14T01:59:26;101102.69;;;17.75;48.86
9325;BME280;4701;51.566;6.776;2023-06-14T02:02:28;101106.88;;;17.73;48.68
9325;BME280;4701;51.566;6.776;2023-06-14T02:05:30;101104.22;;;17.68;48.71
9325;BME280;4701;51.566;6.776;2023-06-14T02:08:34;101100.13;;;17.65;48.73
9325;BME280;4701;51.566;6.776;2023-06-14T02:11:35;101099.63;;;17.63;48.78
9325;BME280;4701;51.566;6.776;2023-06-14T02:14:37;101104.56;;;17.61;48.89
9325;BME280;4701;51.566;6.776;2023-06-14T02:17:39;101106.25;;;17.62;48.49
9325;BME280;4701;51.566;6.776;2023-06-14T02:20:41;101107.88;;;17.63;48.52
9325;BME280;4701;51.566;6.776;2023-06-14T02:23:45;101102.16;;;17.60;48.60
9325;BME280;4701;51.566;6.776;2023-06-14T02:26:46;101107.75;;;17.55;49.62
9325;BME280;4701;51.566;6.776;2023-06-14T02:29:49;101114.06;;;17.55;50.04
9325;BME280;4701;51.566;6.776;2023-06-14T02:32:51;101109.69;;;17.54;50.21
9325;BME280;4701;51.566;6.776;2023-06-14T02:35:53;101106.09;;;17.54;49.84
9325;BME280;4701;51.566;6.776;2023-06-14T02:38:58;101115.50;;;17.53;49.67
9325;BME280;4701;51.566;6.776;2023-06-14T02:42:00;101111.13;;;17.52;50.31
9325;BME280;4701;51.566;6.776;2023-06-14T02:45:02;101117.47;;;17.52;49.56
9325;BME280;4701;51.566;6.776;2023-06-14T02:48:04;101121.63;;;17.50;49.49
9325;BME280;4701;51.566;6.776;2023-06-14T02:51:07;101118.66;;;17.46;49.26
9325;BME280;4701;51.566;6.776;2023-06-14T02:54:11;101117.34;;;17.44;49.12
9325;BME280;4701;51.566;6.776;2023-06-14T02:57:13;101122.63;;;17.40;49.22
9325;BME280;4701;51.566;6.776;2023-06-14T03:00:16;101125.97;;;17.37;49.12
9325;BME280;4701;51.566;6.776;2023-06-14T03:03:21;101135.69;;;17.34;49.22
9325;BME280;4701;51.566;6.776;2023-06-14T03:06:28;101136.81;;;17.33;49.26
9325;BME280;4701;51.566;6.776;2023-06-14T03:09:34;101144.25;;;17.33;49.26
9325;BME280;4701;51.566;6.776;2023-06-14T03:12:36;101142.09;;;17.30;49.50
9325;BME280;4701;51.566;6.776;2023-06-14T03:15:39;101144.94;;;17.25;49.24
9325;BME280;4701;51.566;6.776;2023-06-14T03:18:42;101141.13;;;17.21;49.38
9325;BME280;4701;51.566;6.776;2023-06-14T03:21:44;101151.63;;;17.19;49.40
9325;BME280;4701;51.566;6.776;2023-06-14T03:24:48;101148.69;;;17.15;49.60
9325;BME280;4701;51.566;6.776;2023-06-14T03:27:50;101151.44;;;17.15;49.77
9325;BME280;4701;51.566;6.776;2023-06-14T03:30:53;101152.03;;;17.12;49.85
9325;BME280;4701;51.566;6.776;2023-06-14T03:33:57;101151.81;;;17.09;49.88
9325;BME280;4701;51.566;6.776;2023-06-14T03:36:59;101160.81;;;17.14;50.15
9325;BME280;4701;51.566;6.776;2023-06-14T03:40:04;101170.00;;;17.10;49.91
9325;BME280;4701;51.566;6.776;2023-06-14T03:43:12;101159.03;;;17.05;50.12
9325;BME280;4701;51.566;6.776;2023-06-14T03:46:14;101163.19;;;17.02;50.15
9325;BME280;4701;51.566;6.776;2023-06-14T03:49:16;101166.34;;;16.95;50.62
9325;BME280;4701;51.566;6.776;2023-06-14T03:52:19;101171.13;;;16.90;50.95
9325;BME280;4701;51.566;6.776;2023-06-14T03:55:24;101172.22;;;16.89;50.92
9325;BME280;4701;51.566;6.776;2023-06-14T03:58:28;101174.44;;;16.87;51.07
9325;BME280;4701;51.566;6.776;2023-06-14T04:01:30;101177.00;;;16.83;51.22
9325;BME280;4701;51.566;6.776;2023-06-14T04:04:34;101181.34;;;16.84;51.18
9325;BME280;4701;51.566;6.776;2023-06-14T04:07:36;101187.47;;;16.81;51.57
9325;BME280;4701;51.566;6.776;2023-06-14T04:10:41;101188.88;;;16.79;51.75
9325;BME280;4701;51.566;6.776;2023-06-14T04:13:44;101191.94;;;16.77;51.88
9325;BME280;4701;51.566;6.776;2023-06-14T04:16:46;101198.53;;;16.76;51.78
9325;BME280;4701;51.566;6.776;2023-06-14T04:19:50;101205.69;;;16.77;51.91
9325;BME280;4701;51.566;6.776;2023-06-14T04:22:52;101203.56;;;16.74;52.07
9325;BME280;4701;51.566;6.776;2023-06-14T04:25:56;101208.25;;;16.74;52.18
9325;BME280;4701;51.566;6.776;2023-06-14T04:29:02;101209.88;;;16.75;52.47
9325;BME280;4701;51.566;6.776;2023-06-14T04:32:08;101207.94;;;16.75;52.33
9325;BME280;4701;51.566;6.776;2023-06-14T04:35:12;101206.50;;;16.78;52.56
9325;BME280;4701;51.566;6.776;2023-06-14T04:38:17;101213.38;;;16.80;52.43
9325;BME280;4701;51.566;6.776;2023-06-14T04:41:21;101217.47;;;16.83;52.64
9325;BME280;4701;51.566;6.776;2023-06-14T04:44:24;101224.63;;;16.84;52.72
9325;BME280;4701;51.566;6.776;2023-06-14T04:47:30;101225.41;;;16.84;52.75
9325;BME280;4701;51.566;6.776;2023-06-14T04:50:32;101225.94;;;16.86;53.05
9325;BME280;4701;51.566;6.776;2023-06-14T04:53:35;101222.91;;;16.88;53.18
9325;BME280;4701;51.566;6.776;2023-06-14T04:56:39;101225.56;;;16.93;53.15
9325;BME280;4701;51.566;6.776;2023-06-14T04:59:41;101236.28;;;16.94;53.32
9325;BME280;4701;51.566;6.776;2023-06-14T05:02:44;101236.81;;;16.96;53.33
9325;BME280;4701;51.566;6.776;2023-06-14T05:05:48;101235.63;;;17.02;53.18
9325;BME280;4701;51.566;6.776;2023-06-14T05:08:51;101245.75;;;17.07;53.37
9325;BME280;4701;51.566;6.776;2023-06-14T05:11:55;101248.72;;;17.11;53.29
9325;BME280;4701;51.566;6.776;2023-06-14T05:14:57;101246.19;;;17.14;53.30
9325;BME280;4701;51.566;6.776;2023-06-14T05:17:59;101249.19;;;17.18;53.41
9325;BME280;4701;51.566;6.776;2023-06-14T05:21:01;101252.44;;;17.20;53.59
9325;BME280;4701;51.566;6.776;2023-06-14T05:24:04;101247.97;;;17.24;53.46
9325;BME280;4701;51.566;6.776;2023-06-14T05:27:08;101251.47;;;17.29;53.62
9325;BME280;4701;51.566;6.776;2023-06-14T05:30:11;101250.59;;;17.34;53.64
9325;BME280;4701;51.566;6.776;2023-06-14T05:33:13;101253.78;;;17.41;53.45
9325;BME280;4701;51.566;6.776;2023-06-14T05:36:15;101250.09;;;17.46;53.69
9325;BME280;4701;51.566;6.776;2023-06-14T05:39:17;101259.72;;;17.48;53.71
9325;BME280;4701;51.566;6.776;2023-06-14T05:42:20;101257.63;;;17.59;53.47
9325;BME280;4701;51.566;6.776;2023-06-14T05:45:22;101259.72;;;17.67;53.14
9325;BME280;4701;51.566;6.776;2023-06-14T05:48:23;101257.16;;;17.70;53.09
9325;BME280;4701;51.566;6.776;2023-06-14T05:51:25;101255.97;;;17.76;53.17
9325;BME280;4701;51.566;6.776;2023-06-14T05:54:27;101264.38;;;17.85;53.36
9325;BME280;4701;51.566;6.776;2023-06-14T05:57:30;101274.72;;;17.93;53.29
9325;BME280;4701;51.566;6.776;2023-06-14T06:00:32;101268.78;;;18.00;53.38
9325;BME280;4701;51.566;6.776;2023-06-14T06:03:34;101275.53;;;18.07;53.34
9325;BME280;4701;51.566;6.776;2023-06-14T06:06:36;101282.53;;;18.19;52.57
9325;BME280;4701;51.566;6.776;2023-06-14T06:09:38;101287.84;;;18.29;51.45
9325;BME280;4701;51.566;6.776;2023-06-14T06:12:42;101288.03;;;18.32;50.94
9325;BME280;4701;51.566;6.776;2023-06-14T06:15:44;101280.81;;;18.36;50.10
9325;BME280;4701;51.566;6.776;2023-06-14T06:18:46;101275.06;;;18.46;49.52
9325;BME280;4701;51.566;6.776;2023-06-14T06:21:48;101286.19;;;18.55;49.17
9325;BME280;4701;51.566;6.776;2023-06-14T06:24:50;101297.38;;;18.64;48.88
9325;BME280;4701;51.566;6.776;2023-06-14T06:27:53;101287.06;;;18.69;50.09
9325;BME280;4701;51.566;6.776;2023-06-14T06:30:56;101299.84;;;18.79;49.37
9325;BME280;4701;51.566;6.776;2023-06-14T06:33:58;101296.03;;;18.88;48.32
9325;BME280;4701;51.566;6.776;2023-06-14T06:37:00;101295.34;;;18.97;47.74
9325;BME280;4701;51.566;6.776;2023-06-14T06:40:02;101304.00;;;19.04;47.41
9325;BME280;4701;51.566;6.776;2023-06-14T06:43:07;101308.59;;;19.08;46.86
9325;BME280;4701;51.566;6.776;2023-06-14T06:46:16;101312.09;;;19.14;47.50
9325;BME280;4701;51.566;6.776;2023-06-14T06:49:20;101322.41;;;19.22;46.89
9325;BME280;4701;51.566;6.776;2023-06-14T06:52:22;101328.78;;;19.31;46.98
9325;BME280;4701;51.566;6.776;2023-06-14T06:55:23;101322.88;;;19.38;46.61
9325;BME280;4701;51.566;6.776;2023-06-14T06:58:27;101324.69;;;19.42;46.20
9325;BME280;4701;51.566;6.776;2023-06-14T07:01:28;101328.19;;;19.48;46.47
9325;BME280;4701;51.566;6.776;2023-06-14T07:04:30;101329.41;;;19.55;46.52
9325;BME280;4701;51.566;6.776;2023-06-14T07:07:32;101336.75;;;19.60;46.37
9325;BME280;4701;51.566;6.776;2023-06-14T07:10:34;101339.38;;;19.65;45.98
9325;BME280;4701;51.566;6.776;2023-06-14T07:13:39;101335.19;;;19.68;45.73
9325;BME280;4701;51.566;6.776;2023-06-14T07:16:41;101340.47;;;19.78;45.33
9325;BME280;4701;51.566;6.776;2023-06-14T07:19:43;101331.22;;;19.82;45.53
9325;BME280;4701;51.566;6.776;2023-06-14T07:22:47;101336.63;;;19.87;45.25
9325;BME280;4701;51.566;6.776;2023-06-14T07:25:49;101336.00;;;19.90;45.00
9325;BME280;4701;51.566;6.776;2023-06-14T07:28:52;101338.03;;;19.98;45.59
9325;BME280;4701;51.566;6.776;2023-06-14T07:31:54;101342.91;;;20.01;45.03
9325;BME280;4701;51.566;6.776;2023-06-14T07:34:56;101348.63;;;20.05;45.58
9325;BME280;4701;51.566;6.776;2023-06-14T07:37:57;101334.84;;;20.14;44.83
9325;BME280;4701;51.566;6.776;2023-06-14T07:40:59;101341.88;;;20.20;44.75
9325;BME280;4701;51.566;6.776;2023-06-14T07:44:03;101332.97;;;20.23;45.29
9325;BME280;4701;51.566;6.776;2023-06-14T07:47:05;101329.41;;;20.31;44.69
9325;BME280;4701;51.566;6.776;2023-06-14T07:50:08;101336.47;;;20.37;44.82
9325;BME280;4701;51.566;6.776;2023-06-14T07:53:11;101337.50;;;20.41;44.62
9325;BME280;4701;51.566;6.776;2023-06-14T07:56:13;101337.03;;;20.48;44.76
9325;BME280;4701;51.566;6.776;2023-06-14T07:59:17;101333.59;;;20.51;45.10
9325;BME280;4701;51.566;6.776;2023-06-14T08:02:19;101346.00;;;20.53;45.31
9325;BME280;4701;51.566;6.776;2023-06-14T08:05:20;101339.97;;;20.51;44.40
9325;BME280;4701;51.566;6.776;2023-06-14T08:08:23;101341.91;;;20.51;44.92
9325;BME280;4701;51.566;6.776;2023-06-14T08:11:25;101336.25;;;20.56;45.13
9325;BME280;4701;51.566;6.776;2023-06-14T08:14:28;101352.09;;;20.64;45.28
9325;BME280;4701;51.566;6.776;2023-06-14T08:17:30;101358.13;;;20.66;43.65
9325;BME280;4701;51.566;6.776;2023-06-14T08:20:32;101354.97;;;20.59;43.89
9325;BME280;4701;51.566;6.776;2023-06-14T08:23:35;101349.94;;;20.61;43.76
9325;BME280;4701;51.566;6.776;2023-06-14T08:26:37;101353.22;;;20.63;43.92
9325;BME280;4701;51.566;6.776;2023-06-14T08:29:41;101349.97;;;20.69;43.80
9325;BME280;4701;51.566;6.776;2023-06-14T08:32:44;101344.94;;;20.71;44.03
9325;BME280;4701;51.566;6.776;2023-06-14T08:35:46;101352.63;;;20.74;43.23
9325;BME280;4701;51.566;6.776;2023-06-14T08:38:47;101350.81;;;20.78;44.08
9325;BME280;4701;51.566;6.776;2023-06-14T08:41:50;101339.78;;;20.87;44.16
9325;BME280;4701;51.566;6.776;2023-06-14T08:44:55;101338.16;;;20.95;43.85
9325;BME280;4701;51.566;6.776;2023-06-14T08:47:57;101334.44;;;20.99;43.48
9325;BME280;4701;51.566;6.776;2023-06-14T08:51:00;101343.06;;;20.98;43.71
9325;BME280;4701;51.566;6.776;2023-06-14T08:54:04;101336.91;;;21.01;43.20
9325;BME280;4701;51.566;6.776;2023-06-14T08:57:07;101336.72;;;21.06;42.66
9325;BME280;4701;51.566;6.776;2023-06-14T09:00:14;101339.81;;;21.04;42.37
9325;BME280;4701;51.566;6.776;2023-06-14T09:03:17;101347.50;;;21.07;41.45
9325;BME280;4701;51.566;6.776;2023-06-14T09:06:21;101347.31;;;21.04;41.67
9325;BME280;4701;51.566;6.776;2023-06-14T09:09:25;101341.97;;;21.07;41.08
9325;BME280;4701;51.566;6.776;2023-06-14T09:12:27;101352.56;;;21.14;40.59
9325;BME280;4701;51.566;6.776;2023-06-14T09:15:31;101351.75;;;21.13;40.71
9325;BME280;4701;51.566;6.776;2023-06-14T09:18:35;101347.03;;;21.14;41.11
9325;BME280;4701;51.566;6.776;2023-06-14T09:21:37;101350.16;;;21.21;41.19
9325;BME280;4701;51.566;6.776;2023-06-14T09:24:38;101350.97;;;21.22;40.64
9325;BME280;4701;51.566;6.776;2023-06-14T09:27:40;101359.63;;;21.20;40.63
9325;BME280;4701;51.566;6.776;2023-06-14T09:30:44;101350.47;;;21.20;40.71
9325;BME280;4701;51.566;6.776;2023-06-14T09:33:46;101352.78;;;21.26;41.14
9325;BME280;4701;51.566;6.776;2023-06-14T09:36:49;101350.81;;;21.35;40.68
9325;BME280;4701;51.566;6.776;2023-06-14T09:39:51;101354.28;;;21.41;40.93
9325;BME280;4701;51.566;6.776;2023-06-14T09:42:53;101355.59;;;21.52;39.91
9325;BME280;4701;51.566;6.776;2023-06-14T09:46:00;101359.97;;;21.53;39.73
9325;BME280;4701;51.566;6.776;2023-06-14T09:49:03;101351.19;;;21.51;38.52
9325;BME280;4701;51.566;6.776;2023-06-14T09:52:07;101357.56;;;21.51;38.86
9325;BME280;4701;51.566;6.776;2023-06-14T09:55:13;101357.56;;;21.51;39.41
9325;BME280;4701;51.566;6.776;2023-06-14T09:58:16;101366.19;;;21.59;39.18
9325;BME280;4701;51.566;6.776;2023-06-14T10:01:23;101360.97;;;21.66;39.18
9325;BME280;4701;51.566;6.776;2023-06-14T10:04:27;101359.03;;;21.66;38.78
9325;BME280;4701;51.566;6.776;2023-06-14T10:07:34;101359.66;;;21.72;38.90
9325;BME280;4701;51.566;6.776;2023-06-14T10:10:39;101367.34;;;21.75;38.99
9325;BME280;4701;51.566;6.776;2023-06-14T10:13:41;101370.75;;;21.80;38.48
9325;BME280;4701;51.566;6.776;2023-06-14T10:16:50;101365.06;;;21.77;38.06
9325;BME280;4701;51.566;6.776;2023-06-14T10:20:15;101359.66;;;21.72;38.24
9325;BME280;4701;51.566;6.776;2023-06-14T10:23:20;101363.44;;;21.76;38.29
9325;BME280;4701;51.566;6.776;2023-06-14T10:26:23;101363.91;;;21.86;37.91
9325;BME280;4701;51.566;6.776;2023-06-14T10:29:25;101359.50;;;21.94;37.77
9325;BME280;4701;51.566;6.776;2023-06-14T10:32:33;101358.22;;;22.00;38.29
9325;BME280;4701;51.566;6.776;2023-06-14T10:35:35;101363.56;;;22.14;38.45
9325;BME280;4701;51.566;6.776;2023-06-14T10:38:37;101348.41;;;22.11;38.12
9325;BME280;4701;51.566;6.776;2023-06-14T10:41:40;101346.59;;;22.07;37.74
9325;BME280;4701;51.566;6.776;2023-06-14T10:44:43;101345.47;;;21.99;38.05
9325;BME280;4701;51.566;6.776;2023-06-14T10:47:48;101361.31;;;22.07;38.26
9325;BME280;4701;51.566;6.776;2023-06-14T10:51:00;101349.38;;;22.15;37.38
9325;BME280;4701;51.566;6.776;2023-06-14T10:54:02;101345.63;;;22.11;37.60
9325;BME280;4701;51.566;6.776;2023-06-14T10:57:06;101352.47;;;22.14;38.08
9325;BME280;4701;51.566;6.776;2023-06-14T11:00:10;101351.16;;;22.20;38.01
9325;BME280;4701;51.566;6.776;2023-06-14T11:03:41;101339.53;;;22.26;37.72
9325;BME280;4701;51.566;6.776;2023-06-14T11:06:47;101346.25;;;22.25;38.52
9325;BME280;4701;51.566;6.776;2023-06-14T11:10:00;101354.06;;;22.32;37.75
9325;BME280;4701;51.566;6.776;2023-06-14T11:13:07;101352.59;;;22.35;37.70
9325;BME280;4701;51.566;6.776;2023-06-14T11:16:13;101346.03;;;22.39;37.92
9325;BME280;4701;51.566;6.776;2023-06-14T11:19:17;101347.34;;;22.42;37.81
9325;BME280;4701;51.566;6.776;2023-06-14T11:22:19;101346.69;;;22.45;37.33
9325;BME280;4701;51.566;6.776;2023-06-14T11:25:21;101344.84;;;22.49;37.66
9325;BME280;4701;51.566;6.776;2023-06-14T11:28:23;101348.78;;;22.48;37.86
9325;BME280;4701;51.566;6.776;2023-06-14T11:31:26;101345.47;;;22.54;38.43
9325;BME280;4701;51.566;6.776;2023-06-14T11:34:29;101347.91;;;22.64;37.65
9325;BME280;4701;51.566;6.776;2023-06-14T11:37:32;101336.47;;;22.66;38.01
9325;BME280;4701;51.566;6.776;2023-06-14T11:40:34;101345.59;;;22.75;38.45
9325;BME280;4701;51.566;6.776;2023-06-14T11:43:39;101345.56;;;22.84;37.59
9325;BME280;4701;51.566;6.776;2023-06-14T11:46:41;101337.03;;;22.89;37.65
9325;BME280;4701;51.566;6.776;2023-06-14T11:49:44;101341.09;;;22.91;37.84
9325;BME280;4701;51.566;6.776;2023-06-14T11:52:52;101345.31;;;22.97;37.92
9325;BME280;4701;51.566;6.776;2023-06-14T11:55:54;101350.81;;;23.06;37.68
9325;BME280;4701;51.566;6.776;2023-06-14T11:58:56;101343.59;;;23.14;37.58
9325;BME280;4701;51.566;6.776;2023-06-14T12:01:58;101347.94;;;23.23;37.69
9325;BME280;4701;51.566;6.776;2023-06-14T12:05:06;101335.94;;;23.31;37.80
9325;BME280;4701;51.566;6.776;2023-06-14T12:08:10;101340.16;;;23.37;38.02
9325;BME280;4701;51.566;6.776;2023-06-14T12:11:17;101344.38;;;23.44;37.56
9325;BME280;4701;51.566;6.776;2023-06-14T12:14:19;101344.41;;;23.64;37.84
9325;BME280;4701;51.566;6.776;2023-06-14T12:17:22;101336.06;;;23.64;37.48
9325;BME280;4701;51.566;6.776;2023-06-14T12:20:29;101335.03;;;23.69;37.38
9325;BME280;4701;51.566;6.776;2023-06-14T12:23:44;101336.47;;;23.54;37.75
9325;BME280;4701;51.566;6.776;2023-06-14T12:26:47;101336.66;;;23.70;37.76
9325;BME280;4701;51.566;6.776;2023-06-14T12:29:58;101331.09;;;23.70;37.76
9325;BME280;4701;51.566;6.776;2023-06-14T12:33:01;101322.34;;;23.92;37.71
9325;BME280;4701;51.566;6.776;2023-06-14T12:36:06;101335.13;;;24.26;35.85
9325;BME280;4701;51.566;6.776;2023-06-14T12:39:08;101337.97;;;24.63;34.38
9325;BME280;4701;51.566;6.776;2023-06-14T12:42:10;101339.97;;;24.74;34.62
9325;BME280;4701;51.566;6.776;2023-06-14T12:45:14;101339.16;;;24.74;34.57
9325;BME280;4701;51.566;6.776;2023-06-14T12:48:16;101336.72;;;24.72;34.90
9325;BME280;4701;51.566;6.776;2023-06-14T12:51:19;101343.00;;;24.81;36.02
9325;BME280;4701;51.566;6.776;2023-06-14T12:54:21;101352.66;;;24.96;34.77
9325;BME280;4701;51.566;6.776;2023-06-14T12:57:25;101331.50;;;24.95;35.04
9325;BME280;4701;51.566;6.776;2023-06-14T13:00:28;101348.38;;;24.99;35.35
9325;BME280;4701;51.566;6.776;2023-06-14T13:03:30;101344.53;;;24.91;34.33
9325;BME280;4701;51.566;6.776;2023-06-14T13:06:35;101339.78;;;24.92;35.50
9325;BME280;4701;51.566;6.776;2023-06-14T13:09:37;101347.78;;;25.05;34.91
9325;BME280;4701;51.566;6.776;2023-06-14T13:12:39;101335.00;;;24.92;34.79
9325;BME280;4701;51.566;6.776;2023-06-14T13:15:43;101331.25;;;24.88;34.13
9325;BME280;4701;51.566;6.776;2023-06-14T13:18:46;101342.56;;;24.92;34.56
9325;BME280;4701;51.566;6.776;2023-06-14T13:21:52;101342.66;;;24.95;34.90
9325;BME280;4701;51.566;6.776;2023-06-14T13:24:54;101334.38;;;24.86;33.22
9325;BME280;4701;51.566;6.776;2023-06-14T13:27:56;101334.50;;;24.90;33.98
9325;BME280;4701;51.566;6.776;2023-06-14T13:30:58;101342.66;;;24.95;33.71
9325;BME280;4701;51.566;6.776;2023-06-14T13:33:59;101337.81;;;24.92;32.23
9325;BME280;4701;51.566;6.776;2023-06-14T13:37:03;101350.34;;;24.98;33.91
9325;BME280;4701;51.566;6.776;2023-06-14T13:40:06;101333.69;;;25.02;33.86
9325;BME280;4701;51.566;6.776;2023-06-14T13:43:08;101335.69;;;25.13;34.26
9325;BME280;4701;51.566;6.776;2023-06-14T13:46:10;101350.19;;;25.19;33.89
9325;BME280;4701;51.566;6.776;2023-06-14T13:49:12;101336.63;;;25.17;33.71
9325;BME280;4701;51.566;6.776;2023-06-14T13:52:16;101334.84;;;25.25;33.58
9325;BME280;4701;51.566;6.776;2023-06-14T13:55:18;101326.25;;;25.18;33.45
9325;BME280;4701;51.566;6.776;2023-06-14T13:58:19;101319.88;;;25.05;33.76
9325;BME280;4701;51.566;6.776;2023-06-14T14:01:21;101322.53;;;25.14;33.82
9325;BME280;4701;51.566;6.776;2023-06-14T14:04:24;101329.41;;;25.16;34.01
9325;BME280;4701;51.566;6.776;2023-06-14T14:07:28;101317.53;;;25.19;33.62
9325;BME280;4701;51.566;6.776;2023-06-14T14:10:30;101321.00;;;25.29;34.04
9325;BME280;4701;51.566;6.776;2023-06-14T14:13:32;101310.44;;;25.34;34.03
9325;BME280;4701;51.566;6.776;2023-06-14T14:16:34;101313.34;;;25.25;33.39
9325;BME280;4701;51.566;6.776;2023-06-14T14:19:36;101327.50;;;25.33;33.87
9325;BME280;4701;51.566;6.776;2023-06-14T14:22:40;101326.66;;;25.44;33.32
9325;BME280;4701;51.566;6.776;2023-06-14T14:25:41;101316.41;;;25.48;33.04
9325;BME280;4701;51.566;6.776;2023-06-14T14:28:43;101310.97;;;25.52;33.21
9325;BME280;4701;51.566;6.776;2023-06-14T14:31:45;101323.78;;;25.41;33.57
9325;BME280;4701;51.566;6.776;2023-06-14T14:34:47;101315.41;;;25.41;33.20
9325;BME280;4701;51.566;6.776;2023-06-14T14:37:51;101330.72;;;25.47;32.60
9325;BME280;4701;51.566;6.776;2023-06-14T14:40:53;101323.44;;;25.42;32.64
9325;BME280;4701;51.566;6.776;2023-06-14T14:43:55;101318.25;;;25.56;32.92
9325;BME280;4701;51.566;6.776;2023-06-14T14:46:57;101316.03;;;25.62;33.73
9325;BME280;4701;51.566;6.776;2023-06-14T14:49:59;101315.94;;;25.58;32.88
9325;BME280;4701;51.566;6.776;2023-06-14T14:53:02;101327.41;;;25.69;33.36
9325;BME280;4701;51.566;6.776;2023-06-14T14:56:04;101336.31;;;25.59;33.12
9325;BME280;4701;51.566;6.776;2023-06-14T14:59:06;101322.69;;;25.57;32.63
9325;BME280;4701;51.566;6.776;2023-06-14T15:02:08;101318.59;;;25.55;32.88
9325;BME280;4701;51.566;6.776;2023-06-14T15:05:10;101327.69;;;25.52;33.16
9325;BME280;4701;51.566;6.776;2023-06-14T15:08:14;101327.78;;;25.55;33.23
9325;BME280;4701;51.566;6.776;2023-06-14T15:11:16;101325.25;;;25.50;33.12
9325;BME280;4701;51.566;6.776;2023-06-14T15:14:18;101328.94;;;25.54;33.36
9325;BME280;4701;51.566;6.776;2023-06-14T15:17:20;101323.59;;;25.61;33.40
9325;BME280;4701;51.566;6.776;2023-06-14T15:20:22;101324.19;;;25.67;33.31
9325;BME280;4701;51.566;6.776;2023-06-14T15:23:25;101321.59;;;25.74;32.88
9325;BME280;4701;51.566;6.776;2023-06-14T15:26:27;101309.41;;;25.67;32.01
9325;BME280;4701;51.566;6.776;2023-06-14T15:29:29;101319.28;;;25.76;32.49
9325;BME280;4701;51.566;6.776;2023-06-14T15:32:31;101324.84;;;25.76;32.24
9325;BME280;4701;51.566;6.776;2023-06-14T15:35:36;101325.41;;;25.82;31.41
9325;BME280;4701;51.566;6.776;2023-06-14T15:38:39;101329.31;;;25.93;31.46
9325;BME280;4701;51.566;6.776;2023-06-14T15:41:41;101310.84;;;26.04;31.94
9325;BME280;4701;51.566;6.776;2023-06-14T15:44:43;101319.34;;;26.08;31.34
9325;BME280;4701;51.566;6.776;2023-06-14T15:47:44;101320.00;;;26.17;31.72
9325;BME280;4701;51.566;6.776;2023-06-14T15:50:46;101322.97;;;26.24;32.11
9325;BME280;4701;51.566;6.776;2023-06-14T15:53:50;101322.03;;;26.04;31.26
9325;BME280;4701;51.566;6.776;2023-06-14T15:56:52;101320.00;;;26.17;31.56
9325;BME280;4701;51.566;6.776;2023-06-14T15:59:55;101314.63;;;26.12;32.07
9325;BME280;4701;51.566;6.776;2023-06-14T16:02:57;101309.44;;;26.10;31.73
9325;BME280;4701;51.566;6.776;2023-06-14T16:05:59;101311.22;;;26.03;32.05
9325;BME280;4701;51.566;6.776;2023-06-14T16:09:02;101312.66;;;26.12;32.04
9325;BME280;4701;51.566;6.776;2023-06-14T16:12:05;101315.28;;;26.21;31.54
9325;BME280;4701;51.566;6.776;2023-06-14T16:15:08;101306.06;;;26.32;31.55
9325;BME280;4701;51.566;6.776;2023-06-14T16:18:10;101316.97;;;26.37;31.63
9325;BME280;4701;51.566;6.776;2023-06-14T16:21:12;101316.78;;;26.46;32.07
9325;BME280;4701;51.566;6.776;2023-06-14T16:24:15;101316.97;;;26.37;31.26